Time;durP1;ratioP1;P1;durP2;ratioP2;P2;SDS_P1;SDS_P2;PMS_P1;PMS_P2;Temp;Humidity;BMP_temperature;BMP_pressure;BME280_temperature;BME280_humidity;BME280_pressure;Samples;Min_cycle;Max_cycle;Signal;HPM_P1;HPM_P2
2023/04/23 00:02:15;;;;;;;33.67;27.30;;;;;;;15.36;47.90;99717.63;5010623;28;97038;-83
2023/04/23 00:04:52;;;;;;;33.03;27.70;;;;;;;15.35;48.00;99719.41;5027681;28;96893;-83
2023/04/23 00:07:20;;;;;;;32.83;27.88;;;;;;;15.22;47.97;99712.38;5020857;27;100983;-83
2023/04/23 00:09:46;;;;;;;32.13;26.38;;;;;;;15.26;47.62;99714.69;4992983;28;101519;-83
2023/04/23 00:12:12;;;;;;;31.88;27.25;;;;;;;15.21;47.91;99715.94;5008062;28;96863;-82
2023/04/23 00:14:38;;;;;;;33.78;26.50;;;;;;;15.21;47.26;99713.28;5013238;28;97317;-82
2023/04/23 00:17:03;;;;;;;32.17;26.42;;;;;;;15.03;47.60;99697.63;5013765;28;100718;-83
2023/04/23 00:19:29;;;;;;;32.55;27.10;;;;;;;15.18;47.58;99716.97;4997068;28;100581;-83
2023/04/23 00:21:55;;;;;;;30.85;27.45;;;;;;;14.99;47.71;99704.06;5010515;28;96801;-83
2023/04/23 00:24:21;;;;;;;33.58;25.98;;;;;;;15.09;47.57;99712.25;5012178;28;97747;-83
2023/04/23 00:26:46;;;;;;;35.63;27.40;;;;;;;15.00;47.79;99710.19;5007357;28;97537;-83
2023/04/23 00:29:13;;;;;;;30.75;25.63;;;;;;;14.89;47.32;99692.34;4995387;28;101564;-82
2023/04/23 00:31:39;;;;;;;30.77;25.05;;;;;;;14.88;47.64;99714.44;5001628;28;96905;-82
2023/04/23 00:34:04;;;;;;;30.60;26.02;;;;;;;14.87;47.62;99707.47;5011650;28;97213;-82
2023/04/23 00:36:30;;;;;;;31.35;24.67;;;;;;;14.72;47.64;99701.34;5025120;28;101097;-83
2023/04/23 00:38:55;;;;;;;36.38;26.02;;;;;;;14.77;47.83;99706.31;5008229;28;101442;-82
2023/04/23 00:41:22;;;;;;;29.35;25.75;;;;;;;14.44;48.02;99679.19;5006262;27;97466;-83
2023/04/23 00:43:51;;;;;;;34.70;26.60;;;;;;;14.55;48.12;99686.50;5024651;27;97524;-84
2023/04/23 00:46:16;;;;;;;29.70;25.65;;;;;;;14.63;48.30;99708.03;5060788;27;98145;-83
2023/04/23 00:48:44;;;;;;;30.92;26.50;;;;;;;14.47;47.98;99681.63;4992483;28;101084;-82
2023/04/23 00:51:10;;;;;;;32.03;26.17;;;;;;;14.57;48.42;99703.09;4995820;27;97192;-82
2023/04/23 00:53:35;;;;;;;28.88;25.33;;;;;;;14.55;48.56;99702.34;5012534;28;96938;-83
2023/04/23 00:56:03;;;;;;;30.00;26.63;;;;;;;14.27;48.73;99695.19;5021080;27;101112;-82
2023/04/23 00:58:29;;;;;;;30.02;25.88;;;;;;;14.33;48.69;99697.47;4992152;27;100953;-82
2023/04/23 01:00:55;;;;;;;30.13;26.83;;;;;;;14.35;48.87;99682.38;5022564;27;97906;-83
2023/04/23 01:03:22;;;;;;;28.33;24.08;;;;;;;14.39;48.86;99697.09;5029740;27;96882;-83
2023/04/23 01:05:48;;;;;;;28.80;25.75;;;;;;;14.21;49.01;99666.50;4992448;28;101692;-82
2023/04/23 01:08:16;;;;;;;28.88;25.80;;;;;;;14.17;48.98;99673.78;4996807;28;100798;-82
2023/04/23 01:10:46;;;;;;;33.08;24.83;;;;;;;14.17;49.05;99671.13;5009285;28;97326;-82
2023/04/23 01:13:15;;;;;;;29.30;25.98;;;;;;;14.11;48.97;99668.84;5013175;28;97114;-83
2023/04/23 01:15:42;;;;;;;32.65;26.23;;;;;;;14.31;49.15;99701.13;5011952;28;98529;-83
2023/04/23 01:18:08;;;;;;;27.77;24.88;;;;;;;14.25;49.18;99689.13;5004609;28;101974;-83
2023/04/23 01:20:34;;;;;;;30.52;24.75;;;;;;;14.31;49.05;99698.47;5012146;28;96786;-83
2023/04/23 01:23:01;;;;;;;29.20;25.67;;;;;;;14.32;48.63;99682.56;5009759;28;97164;-82
2023/04/23 01:25:27;;;;;;;28.85;25.00;;;;;;;14.19;48.88;99671.03;4990790;28;101232;-81
2023/04/23 01:27:53;;;;;;;28.95;25.17;;;;;;;14.14;48.90;99667.84;4988662;27;101712;-84
2023/04/23 01:30:20;;;;;;;27.35;24.55;;;;;;;14.34;48.98;99687.75;5013863;28;96726;-83
2023/04/23 01:32:47;;;;;;;26.63;23.85;;;;;;;14.24;49.31;99695.38;5024918;28;97186;-84
2023/04/23 01:35:13;;;;;;;30.58;24.00;;;;;;;14.07;49.15;99669.97;5029617;28;97672;-84
2023/04/23 01:37:38;;;;;;;27.77;24.20;;;;;;;14.03;49.34;99685.13;5020754;28;99902;-84
2023/04/23 01:40:07;;;;;;;28.20;24.42;;;;;;;13.76;49.73;99642.75;4995482;28;97176;-84
2023/04/23 01:42:34;;;;;;;31.02;25.15;;;;;;;14.03;49.78;99684.28;5009133;28;97278;-84
2023/04/23 01:45:01;;;;;;;26.45;23.55;;;;;;;13.77;49.05;99638.31;5021858;27;100149;-84
2023/04/23 01:47:27;;;;;;;29.63;25.33;;;;;;;14.12;49.36;99685.53;4991920;28;100963;-84
2023/04/23 01:49:54;;;;;;;28.38;24.33;;;;;;;13.98;49.42;99670.50;5011222;28;96728;-84
2023/04/23 01:52:19;;;;;;;26.58;23.77;;;;;;;13.80;49.79;99660.06;4995414;28;96919;-84
2023/04/23 01:54:47;;;;;;;24.83;22.20;;;;;;;13.73;49.43;99652.59;4993926;28;101190;-85
2023/04/23 01:57:12;;;;;;;26.52;23.75;;;;;;;13.73;50.00;99661.38;5012336;28;100324;-84
2023/04/23 01:59:38;;;;;;;24.48;22.00;;;;;;;13.89;49.80;99677.16;5043674;27;97038;-83
2023/04/23 02:02:09;;;;;;;26.35;22.27;;;;;;;13.72;49.69;99659.66;5018786;27;97662;-83
2023/04/23 02:04:35;;;;;;;27.77;22.85;;;;;;;13.86;49.34;99679.97;5008531;28;101222;-84
2023/04/23 02:07:02;;;;;;;26.35;22.88;;;;;;;13.77;49.65;99668.16;4992224;28;99080;-84
2023/04/23 02:09:28;;;;;;;27.60;22.58;;;;;;;13.82;49.49;99676.69;5012169;28;97434;-84
2023/04/23 02:11:53;;;;;;;28.98;23.10;;;;;;;13.77;49.71;99670.81;5005329;28;97282;-84
2023/04/23 02:14:20;;;;;;;26.35;23.65;;;;;;;13.48;49.98;99621.53;5011948;28;101334;-83
2023/04/23 02:16:47;;;;;;;26.13;22.95;;;;;;;13.79;49.53;99676.00;5010009;27;101909;-83
2023/04/23 02:19:14;;;;;;;26.17;22.85;;;;;;;13.55;50.33;99654.50;5004637;28;98075;-83
2023/04/23 02:21:40;;;;;;;34.75;23.98;;;;;;;13.51;49.92;99642.44;4996129;28;96873;-84
2023/04/23 02:24:06;;;;;;;27.23;24.13;;;;;;;13.73;50.24;99666.66;5031660;27;101397;-83
2023/04/23 02:26:33;;;;;;;25.63;22.85;;;;;;;13.63;49.70;99654.06;4991319;28;100986;-83
2023/04/23 02:28:59;;;;;;;27.27;22.45;;;;;;;13.59;50.85;99667.44;5014666;28;98222;-83
2023/04/23 02:31:25;;;;;;;25.48;22.77;;;;;;;13.64;50.48;99667.16;5005783;28;96914;-83
2023/04/23 02:33:52;;;;;;;24.30;21.90;;;;;;;13.39;50.19;99635.22;5008718;27;101381;-83
2023/04/23 02:36:19;;;;;;;31.08;23.42;;;;;;;13.43;50.80;99642.03;5007179;28;101283;-84
2023/04/23 02:38:47;;;;;;;27.05;22.63;;;;;;;13.50;50.99;99662.69;5014877;28;97112;-84
2023/04/23 02:41:13;;;;;;;28.42;22.45;;;;;;;13.33;50.76;99632.00;4998871;28;97165;-83
2023/04/23 02:43:38;;;;;;;24.63;22.17;;;;;;;13.24;50.43;99619.31;5014951;28;97835;-84
2023/04/23 02:46:08;;;;;;;24.83;22.23;;;;;;;13.14;50.79;99618.94;5013532;28;101499;-83
2023/04/23 02:48:37;;;;;;;25.42;22.65;;;;;;;13.43;50.62;99669.22;5030511;28;98890;-84
2023/04/23 02:51:03;;;;;;;24.75;22.13;;;;;;;13.07;51.12;99630.78;5013246;27;97264;-84
2023/04/23 02:53:29;;;;;;;25.17;22.58;;;;;;;13.36;50.31;99663.47;5013882;28;101031;-83
2023/04/23 02:55:54;;;;;;;24.85;22.15;;;;;;;13.21;50.84;99642.34;4997948;28;101100;-84
2023/04/23 02:58:20;;;;;;;26.70;22.15;;;;;;;13.08;50.86;99607.91;5015565;28;96743;-83
2023/04/23 03:00:49;;;;;;;24.20;21.60;;;;;;;13.32;51.39;99661.06;5026475;28;97474;-83
2023/04/23 03:03:16;;;;;;;25.25;21.88;;;;;;;13.22;50.13;99639.63;5023518;28;101661;-85
2023/04/23 03:05:42;;;;;;;25.88;23.23;;;;;;;13.25;50.50;99657.94;5030511;28;99345;-83
2023/04/23 03:08:07;;;;;;;24.02;21.55;;;;;;;13.34;50.66;99667.09;5025003;27;97477;-82
2023/04/23 03:10:33;;;;;;;24.63;22.02;;;;;;;13.13;50.62;99634.88;5014530;28;96956;-83
2023/04/23 03:12:59;;;;;;;25.25;22.50;;;;;;;12.96;50.85;99608.59;4996931;28;99715;-82
2023/04/23 03:15:26;;;;;;;25.92;23.13;;;;;;;13.22;50.85;99651.94;4997844;28;101949;-83
2023/04/23 03:17:52;;;;;;;26.33;23.52;;;;;;;13.30;50.92;99670.88;4998455;28;97400;-83
2023/04/23 03:20:19;;;;;;;24.30;21.75;;;;;;;13.22;51.38;99659.84;4997550;28;97081;-82
2023/04/23 03:22:45;;;;;;;24.58;20.80;;;;;;;13.17;51.21;99669.78;5047337;27;101130;-82
2023/04/23 03:25:13;;;;;;;25.25;22.58;;;;;;;12.95;51.17;99635.88;5030938;27;101626;-82
2023/04/23 03:27:41;;;;;;;24.27;21.77;;;;;;;12.94;51.55;99650.81;5013387;28;98031;-83
2023/04/23 03:30:08;;;;;;;24.38;21.67;;;;;;;12.81;51.85;99641.91;5027991;28;96977;-82
2023/04/23 03:32:35;;;;;;;27.52;22.13;;;;;;;12.88;51.83;99648.53;5047249;27;99944;-83
2023/04/23 03:35:01;;;;;;;25.23;22.55;;;;;;;12.68;51.94;99639.06;5024662;28;101680;-83
2023/04/23 03:37:27;;;;;;;25.98;22.65;;;;;;;12.79;51.96;99647.22;5038892;27;97296;-83
2023/04/23 03:39:53;;;;;;;25.35;22.77;;;;;;;12.77;51.96;99654.38;5007223;28;97079;-82
2023/04/23 03:42:18;;;;;;;23.80;21.38;;;;;;;12.61;52.49;99630.63;4989213;28;101748;-83
2023/04/23 03:44:44;;;;;;;23.75;21.15;;;;;;;12.68;51.84;99637.28;4996312;28;99934;-84
2023/04/23 03:47:10;;;;;;;24.67;21.25;;;;;;;12.49;51.93;99610.25;4997902;28;96894;-82
2023/04/23 03:49:37;;;;;;;26.33;22.10;;;;;;;12.84;51.80;99652.25;5035244;27;97369;-82
2023/04/23 03:52:03;;;;;;;25.70;22.70;;;;;;;12.79;51.95;99647.22;5030864;27;101525;-83
2023/04/23 03:54:29;;;;;;;24.60;21.65;;;;;;;12.64;52.22;99627.84;5011864;28;97938;-84
2023/04/23 03:57:24;;;;;;;23.92;20.88;;;;;;;12.76;52.25;99638.66;5035855;27;96981;-83
2023/04/23 04:00:00;;;;;;;27.17;21.75;;;;;;;12.73;52.01;99630.91;5006284;28;97495;-82
2023/04/23 04:02:25;;;;;;;34.90;21.83;;;;;;;12.87;51.73;99652.09;5013963;28;102802;-82
2023/04/23 04:04:53;;;;;;;22.80;19.63;;;;;;;12.78;51.92;99642.06;5011786;28;101416;-82
2023/04/23 04:07:19;;;;;;;24.63;21.88;;;;;;;12.64;51.87;99637.53;5014109;28;97460;-83
2023/04/23 04:09:47;;;;;;;24.38;20.95;;;;;;;12.61;52.26;99633.28;5014759;28;96840;-83
2023/04/23 04:12:17;;;;;;;25.05;20.17;;;;;;;12.44;52.12;99613.09;5014530;28;99899;-82
2023/04/23 04:14:44;;;;;;;22.58;20.15;;;;;;;12.68;52.38;99658.34;4994864;27;101266;-83
2023/04/23 04:17:11;;;;;;;24.15;21.60;;;;;;;12.69;52.27;99648.66;4992691;28;98534;-83
2023/04/23 04:19:37;;;;;;;23.65;21.17;;;;;;;12.40;51.92;99624.72;5010601;28;97418;-83
2023/04/23 04:22:03;;;;;;;24.73;21.98;;;;;;;12.44;52.67;99633.31;5014041;28;97925;-82
2023/04/23 04:24:31;;;;;;;29.30;21.17;;;;;;;12.45;52.67;99619.25;5013857;28;99882;-82
2023/04/23 04:26:58;;;;;;;24.38;20.98;;;;;;;12.57;52.60;99637.00;4994363;28;96862;-82
2023/04/23 04:29:25;;;;;;;22.15;19.85;;;;;;;12.54;52.12;99617.91;4997524;28;97039;-83
2023/04/23 04:31:53;;;;;;;29.25;21.92;;;;;;;12.77;52.33;99635.94;5005842;27;99417;-82
2023/04/23 04:34:22;;;;;;;24.95;21.35;;;;;;;12.78;52.48;99639.44;5044877;27;100048;-83
2023/04/23 04:36:47;;;;;;;22.85;20.17;;;;;;;12.88;51.63;99649.38;5013874;28;97325;-83
2023/04/23 04:39:15;;;;;;;22.92;20.67;;;;;;;12.71;52.09;99611.72;5015637;27;96944;-82
2023/04/23 04:41:42;;;;;;;25.65;22.30;;;;;;;12.95;51.97;99644.63;5025447;27;101569;-82
2023/04/23 04:44:08;;;;;;;25.58;21.17;;;;;;;12.74;51.70;99606.28;5029510;27;99666;-82
2023/04/23 04:46:39;;;;;;;23.73;20.40;;;;;;;12.83;52.24;99622.44;5047206;27;97017;-82
2023/04/23 04:49:07;;;;;;;22.25;19.98;;;;;;;13.05;51.73;99643.19;4995112;27;96795;-83
2023/04/23 04:51:34;;;;;;;22.70;20.13;;;;;;;13.16;51.74;99633.84;5033098;27;99943;-82
2023/04/23 04:54:00;;;;;;;23.52;20.00;;;;;;;13.31;51.57;99646.19;5035184;27;101631;-83
2023/04/23 04:56:26;;;;;;;27.08;19.73;;;;;;;13.26;51.25;99609.53;5011584;28;97449;-82
2023/04/23 04:58:52;;;;;;;21.83;18.83;;;;;;;13.58;50.94;99644.66;5012752;28;97328;-82
2023/04/23 05:01:20;;;;;;;22.55;19.52;;;;;;;13.56;50.60;99619.31;5010525;28;101642;-83
2023/04/23 05:03:47;;;;;;;21.63;18.83;;;;;;;13.80;50.38;99640.75;5012557;28;101643;-83
2023/04/23 05:06:12;;;;;;;20.42;18.38;;;;;;;13.75;50.73;99617.28;4994562;27;97865;-83
2023/04/23 05:08:38;;;;;;;22.05;19.67;;;;;;;13.91;49.76;99625.16;5020753;27;99058;-83
2023/04/23 05:11:04;;;;;;;21.75;19.05;;;;;;;14.11;49.71;99636.31;5013059;28;101889;-82
2023/04/23 05:13:30;;;;;;;20.95;18.35;;;;;;;13.93;49.88;99614.50;5013166;28;100667;-82
2023/04/23 05:15:55;;;;;;;20.08;18.00;;;;;;;13.83;50.20;99608.94;5009492;28;97085;-82
2023/04/23 05:18:24;;;;;;;22.48;20.02;;;;;;;14.09;49.80;99622.38;5010355;28;96798;-82
2023/04/23 05:20:50;;;;;;;20.30;18.25;;;;;;;14.23;49.82;99620.63;5001064;28;101395;-82
2023/04/23 05:23:15;;;;;;;19.15;17.15;;;;;;;14.29;49.70;99605.34;5005043;28;102467;-82
2023/04/23 05:25:42;;;;;;;21.40;18.40;;;;;;;14.43;49.23;99623.84;5008636;28;96920;-83
2023/04/23 05:28:08;;;;;;;18.83;16.88;;;;;;;14.38;49.39;99628.56;5021015;27;97089;-82
2023/04/23 05:30:35;;;;;;;18.67;16.83;;;;;;;14.40;49.46;99609.03;5009709;28;101589;-83
2023/04/23 05:33:02;;;;;;;22.08;18.02;;;;;;;14.61;48.68;99606.06;5012553;28;101303;-83
2023/04/23 05:35:28;;;;;;;19.38;17.45;;;;;;;14.94;49.03;99619.78;5011066;28;97150;-83
2023/04/23 05:37:54;;;;;;;21.77;18.33;;;;;;;15.07;48.62;99622.50;5013064;28;97344;-83
2023/04/23 05:40:19;;;;;;;18.63;16.85;;;;;;;15.15;48.44;99619.34;4995722;28;99791;-84
2023/04/23 05:42:45;;;;;;;21.50;17.40;;;;;;;15.17;48.22;99601.59;4994949;28;101108;-84
2023/04/23 05:45:11;;;;;;;19.02;17.20;;;;;;;15.32;48.20;99618.28;5012885;28;97273;-83
2023/04/23 05:47:36;;;;;;;21.15;18.90;;;;;;;15.15;47.64;99577.94;5030132;28;96895;-83
2023/04/23 05:50:02;;;;;;;21.25;18.88;;;;;;;15.57;47.69;99617.53;5009511;28;98118;-83
2023/04/23 05:52:34;;;;;;;19.70;17.35;;;;;;;15.72;47.41;99608.59;5015034;28;101375;-84
2023/04/23 05:55:00;;;;;;;19.95;17.33;;;;;;;15.79;47.53;99596.66;5026052;27;100346;-84
2023/04/23 05:57:25;;;;;;;21.70;17.42;;;;;;;15.99;47.37;99607.69;5024852;27;97660;-83
2023/04/23 05:59:51;;;;;;;21.45;17.77;;;;;;;16.24;46.82;99617.47;5006077;28;99618;-83
2023/04/23 06:02:16;;;;;;;19.05;17.08;;;;;;;16.44;46.71;99608.16;4986138;28;101307;-84
2023/04/23 06:04:42;;;;;;;17.15;15.25;;;;;;;16.62;46.29;99609.53;5010778;28;97255;-85
2023/04/23 06:07:08;;;;;;;20.50;18.40;;;;;;;16.91;45.60;99606.63;5000274;28;97685;-85
2023/04/23 06:09:33;;;;;;;18.10;16.30;;;;;;;16.87;45.56;99603.38;5014447;28;100410;-85
2023/04/23 06:11:59;;;;;;;17.90;16.02;;;;;;;17.03;45.52;99599.59;5003495;27;101346;-84
2023/04/23 06:14:25;;;;;;;17.08;15.38;;;;;;;17.16;45.42;99595.97;5031512;27;97145;-83
2023/04/23 06:16:50;;;;;;;17.63;15.52;;;;;;;17.39;45.31;99612.84;5018942;28;96893;-84
2023/04/23 06:19:16;;;;;;;22.27;16.50;;;;;;;17.63;44.78;99617.31;4998712;28;101759;-84
2023/04/23 06:21:42;;;;;;;17.77;16.08;;;;;;;17.79;44.69;99599.28;5019808;27;101064;-86
2023/04/23 06:24:07;;;;;;;18.23;16.58;;;;;;;18.09;44.08;99595.25;5015523;28;97285;-84
2023/04/23 06:26:33;;;;;;;17.38;15.65;;;;;;;18.43;43.37;99609.44;5011700;28;97161;-84
2023/04/23 06:29:05;;;;;;;18.00;16.20;;;;;;;18.61;43.10;99587.69;5005356;27;100802;-84
2023/04/23 06:31:35;;;;;;;17.88;16.20;;;;;;;18.64;42.59;99592.78;5003535;28;100172;-84
2023/04/23 06:34:01;;;;;;;17.38;15.57;;;;;;;18.96;42.75;99590.25;4994628;28;97197;-84
2023/04/23 06:36:27;;;;;;;16.23;14.65;;;;;;;19.30;42.01;99590.19;5028957;28;96902;-83
2023/04/23 06:38:53;;;;;;;15.98;14.45;;;;;;;19.72;41.84;99599.09;4978712;28;101320;-84
2023/04/23 06:41:19;;;;;;;19.48;16.73;;;;;;;20.05;41.32;99591.94;5012572;28;101680;-84
2023/04/23 06:43:47;;;;;;;18.70;16.40;;;;;;;20.40;40.66;99580.06;4998443;28;97108;-83
2023/04/23 06:46:25;;;;;;;19.75;15.85;;;;;;;20.70;40.27;99592.56;5003595;28;101207;-83
2023/04/23 06:48:50;;;;;;;17.40;15.63;;;;;;;20.71;39.85;99584.44;5007133;28;101368;-85
2023/04/23 06:51:16;;;;;;;19.23;15.63;;;;;;;20.03;41.05;99568.06;4990816;28;101857;-85
2023/04/23 06:53:41;;;;;;;18.17;16.38;;;;;;;20.71;40.29;99555.13;5014917;28;96914;-83
2023/04/23 06:56:08;;;;;;;18.33;16.55;;;;;;;20.85;40.14;99561.88;5009133;28;96914;-85
2023/04/23 06:58:34;;;;;;;17.20;15.60;;;;;;;21.10;40.00;99573.88;5038850;27;101788;-83
2023/04/23 07:01:09;;;;;;;19.25;17.38;;;;;;;21.83;39.42;99563.66;5015865;28;99261;-83
2023/04/23 07:03:35;;;;;;;17.90;16.27;;;;;;;22.08;38.39;99550.72;5017675;27;97388;-82
2023/04/23 07:06:02;;;;;;;19.38;17.45;;;;;;;21.86;39.04;99554.53;5027499;28;97987;-83
2023/04/23 07:08:27;;;;;;;19.42;17.67;;;;;;;22.63;38.19;99564.19;4993249;27;101139;-84
2023/04/23 07:10:53;;;;;;;18.92;17.42;;;;;;;23.19;37.41;99551.66;5012080;28;99765;-83
2023/04/23 07:13:19;;;;;;;18.52;16.83;;;;;;;23.60;36.81;99518.03;4997279;28;97319;-83
2023/04/23 07:15:45;;;;;;;19.63;17.67;;;;;;;24.20;36.11;99557.50;4998583;28;97213;-85
2023/04/23 07:18:11;;;;;;;20.17;18.20;;;;;;;24.58;35.74;99548.22;5024778;27;102008;-85
2023/04/23 07:20:37;;;;;;;19.02;17.10;;;;;;;24.80;35.65;99532.50;4992294;27;100530;-83
2023/04/23 07:23:03;;;;;;;18.00;16.48;;;;;;;24.50;35.20;99507.09;5029055;28;97336;-83
2023/04/23 07:25:29;;;;;;;22.45;16.00;;;;;;;25.01;34.83;99532.06;5014110;28;97453;-84
2023/04/23 07:27:55;;;;;;;16.73;15.32;;;;;;;25.19;34.79;99526.59;4991034;28;101188;-83
2023/04/23 07:30:22;;;;;;;17.30;15.88;;;;;;;25.17;34.92;99529.47;5027802;28;98344;-92
2023/04/23 07:32:48;;;;;;;17.75;15.68;;;;;;;25.23;34.71;99530.66;5012469;28;97039;-88
2023/04/23 07:35:14;;;;;;;18.20;16.55;;;;;;;25.85;34.11;99525.63;5011185;28;96810;-82
2023/04/23 07:37:39;;;;;;;15.70;14.20;;;;;;;26.24;33.73;99532.97;5000957;28;101163;-81
2023/04/23 07:40:07;;;;;;;16.48;14.98;;;;;;;26.33;33.54;99529.25;5004071;28;101046;-74
2023/04/23 07:42:32;;;;;;;16.75;15.05;;;;;;;26.83;32.62;99522.66;5030831;27;96784;-76
2023/04/23 07:44:58;;;;;;;15.90;14.30;;;;;;;26.15;33.07;99528.59;5007876;28;96924;-78
2023/04/23 07:47:23;;;;;;;15.85;14.55;;;;;;;26.25;32.98;99515.81;5008926;28;101176;-79
2023/04/23 07:49:49;;;;;;;14.88;13.70;;;;;;;25.77;33.82;99522.09;5044428;27;101488;-79
2023/04/23 07:52:15;;;;;;;16.25;14.95;;;;;;;26.24;33.41;99530.28;5005610;28;96824;-77
2023/04/23 07:54:43;;;;;;;16.27;14.85;;;;;;;26.04;33.92;99515.53;5005832;27;97864;-81
2023/04/23 07:57:10;;;;;;;15.65;14.27;;;;;;;26.86;32.98;99511.53;5019554;27;98569;-78
2023/04/23 07:59:37;;;;;;;18.10;14.50;;;;;;;27.51;32.20;99515.66;4993599;28;101547;-81
2023/04/23 08:02:04;;;;;;;15.20;13.65;;;;;;;27.68;32.09;99512.84;5008323;28;97412;-79
2023/04/23 08:04:30;;;;;;;16.00;14.50;;;;;;;27.99;31.11;99512.75;5055060;27;96826;-79
2023/04/23 08:06:55;;;;;;;14.80;13.35;;;;;;;27.44;32.05;99521.97;5035364;27;100730;-79
2023/04/23 08:09:21;;;;;;;14.18;12.82;;;;;;;27.51;31.71;99507.59;5022292;28;97943;-78
2023/04/23 08:11:47;;;;;;;14.68;13.35;;;;;;;28.13;31.02;99497.59;5018835;27;97479;-80
2023/04/23 08:14:13;;;;;;;14.68;13.27;;;;;;;27.61;31.75;99511.91;5012069;28;97307;-78
2023/04/23 08:16:39;;;;;;;13.82;12.65;;;;;;;28.42;30.85;99502.16;5007027;28;101963;-78
2023/04/23 08:19:05;;;;;;;13.35;12.15;;;;;;;28.68;30.36;99488.16;5009451;28;101202;-78
2023/04/23 08:21:31;;;;;;;14.20;13.13;;;;;;;29.36;29.19;99491.44;5011880;28;96876;-78
2023/04/23 08:23:57;;;;;;;14.10;12.90;;;;;;;29.42;28.55;99496.06;4993009;28;97059;-78
2023/04/23 08:26:22;;;;;;;13.02;11.90;;;;;;;29.77;28.53;99475.38;5004258;27;100852;-78
2023/04/23 08:28:48;;;;;;;13.02;11.73;;;;;;;29.54;28.16;99478.28;5037456;27;102096;-81
2023/04/23 08:31:13;;;;;;;13.77;12.27;;;;;;;29.51;28.31;99475.97;4987418;27;97619;-78
2023/04/23 08:33:39;;;;;;;13.45;12.25;;;;;;;29.76;28.00;99472.88;5044116;27;96795;-79
2023/04/23 08:36:05;;;;;;;13.32;12.23;;;;;;;29.02;28.50;99476.75;5009980;28;97685;-78
2023/04/23 08:38:32;;;;;;;13.65;12.48;;;;;;;28.70;29.18;99467.22;5027401;27;97247;-78
2023/04/23 08:40:58;;;;;;;13.85;12.82;;;;;;;28.01;29.49;99481.03;5021801;27;97436;-79
2023/04/23 08:43:35;;;;;;;13.30;12.10;;;;;;;28.09;29.22;99472.00;5020043;27;97633;-79
2023/04/23 08:46:03;;;;;;;13.18;12.07;;;;;;;27.34;30.01;99472.88;5020591;27;101901;-79
2023/04/23 08:48:29;;;;;;;13.38;12.32;;;;;;;26.62;30.27;99482.09;4988274;28;101045;-78
2023/04/23 08:50:56;;;;;;;12.73;11.73;;;;;;;26.55;31.04;99457.72;5013351;28;97055;-88
2023/04/23 08:53:26;;;;;;;14.07;12.38;;;;;;;26.96;30.29;99445.84;5007557;28;97448;-88
2023/04/23 08:55:53;;;;;;;12.65;11.35;;;;;;;27.07;30.07;99461.59;5017321;28;100955;-86
2023/04/23 08:58:19;;;;;;;12.32;11.43;;;;;;;26.70;30.30;99424.66;5014625;27;100359;-88
2023/04/23 09:00:45;;;;;;;13.45;12.35;;;;;;;26.22;30.53;99443.53;5012014;27;97960;-87
2023/04/23 09:03:11;;;;;;;14.13;12.68;;;;;;;26.86;30.13;99459.56;5059596;27;97042;-87
2023/04/23 09:05:36;;;;;;;13.35;12.20;;;;;;;26.32;31.31;99463.00;5032735;27;101164;-83
2023/04/23 09:08:02;;;;;;;11.88;10.93;;;;;;;26.58;30.75;99467.28;5013448;28;100915;-85
2023/04/23 09:10:27;;;;;;;17.75;12.70;;;;;;;26.32;30.18;99478.28;5013898;28;97397;-86
2023/04/23 09:12:54;;;;;;;12.60;11.50;;;;;;;25.83;31.10;99475.75;5010447;28;97181;-85
2023/04/23 09:15:19;;;;;;;12.00;11.00;;;;;;;25.75;31.60;99473.91;5028460;28;97436;-85
2023/04/23 09:17:46;;;;;;;13.52;12.18;;;;;;;25.39;31.95;99457.28;5007578;27;101323;-85
2023/04/23 09:20:12;;;;;;;13.13;12.23;;;;;;;24.81;32.79;99449.19;5008638;27;97232;-87
2023/04/23 09:22:45;;;;;;;12.57;11.65;;;;;;;24.59;33.04;99469.41;5008733;28;97429;-86
2023/04/23 09:25:12;;;;;;;13.02;12.02;;;;;;;24.53;33.18;99461.16;5011701;28;101227;-86
2023/04/23 09:27:38;;;;;;;12.90;12.00;;;;;;;24.69;33.53;99471.94;5001631;28;97948;-86
2023/04/23 09:30:09;;;;;;;13.13;11.95;;;;;;;25.31;32.74;99455.47;5033366;27;97319;-86
2023/04/23 09:32:37;;;;;;;12.40;11.40;;;;;;;26.04;32.26;99440.25;5009437;28;96967;-85
2023/04/23 09:35:04;;;;;;;13.40;12.40;;;;;;;26.56;31.36;99456.72;5019573;27;98601;-85
2023/04/23 09:37:31;;;;;;;13.82;12.70;;;;;;;26.43;31.35;99461.78;5038425;27;98075;-79
2023/04/23 09:40:02;;;;;;;13.20;12.10;;;;;;;26.30;31.68;99446.22;5023243;27;98266;-76
2023/04/23 09:42:28;;;;;;;13.02;11.93;;;;;;;25.77;32.64;99454.88;5000745;28;98828;-79
2023/04/23 09:44:58;;;;;;;13.05;11.88;;;;;;;25.33;33.16;99448.06;5010838;28;101147;-86
2023/04/23 09:47:24;;;;;;;;;;;;;;;24.72;34.29;99454.66;5014711;28;101797;-84
2023/04/23 09:49:50;;;;;;;12.45;11.55;;;;;;;24.45;34.52;99443.19;5041338;27;97409;-83
2023/04/23 09:52:17;;;;;;;13.50;12.50;;;;;;;24.16;34.91;99460.47;5029834;28;97313;-88
2023/04/23 09:54:45;;;;;;;13.32;12.13;;;;;;;24.09;35.00;99459.44;5015927;28;97915;-88
2023/04/23 09:57:11;;;;;;;13.23;12.02;;;;;;;23.78;35.21;99458.25;5014271;27;100914;-86
2023/04/23 09:59:36;;;;;;;12.43;11.35;;;;;;;23.45;35.96;99458.00;4995463;27;97426;-81
2023/04/23 10:02:05;;;;;;;13.27;11.35;;;;;;;23.47;35.51;99440.78;5003444;28;96920;-81
2023/04/23 10:04:32;;;;;;;13.20;12.05;;;;;;;23.53;35.75;99452.69;5013409;28;101368;-81
2023/04/23 10:06:59;;;;;;;13.32;12.23;;;;;;;23.45;35.87;99442.78;5024120;28;101154;-81
2023/04/23 10:09:27;;;;;;;12.93;11.68;;;;;;;23.33;36.00;99451.19;5016169;28;96834;-81
2023/04/23 10:11:54;;;;;;;13.30;12.13;;;;;;;23.32;35.88;99455.72;4996991;28;97136;-84
2023/04/23 10:14:24;;;;;;;12.80;11.80;;;;;;;23.28;36.02;99454.34;5024645;28;97749;-81
2023/04/23 10:16:52;;;;;;;13.07;11.88;;;;;;;23.20;36.42;99464.97;5032755;27;101206;-81
2023/04/23 10:19:22;;;;;;;12.95;11.82;;;;;;;23.02;36.78;99462.31;5012047;28;97253;-80
2023/04/23 10:22:14;;;;;;;12.18;11.27;;;;;;;22.63;37.14;99430.47;4997286;28;97232;-80
2023/04/23 10:24:40;;;;;;;12.45;11.38;;;;;;;22.74;37.05;99445.44;5011028;28;98188;-81
2023/04/23 10:27:12;;;;;;;13.95;11.93;;;;;;;22.91;37.25;99441.09;5012340;28;97838;-81
2023/04/23 10:29:38;;;;;;;13.05;11.98;;;;;;;22.95;36.85;99448.72;5028105;28;97383;-81
2023/04/23 10:32:05;;;;;;;12.13;10.85;;;;;;;22.98;36.94;99444.88;5025036;27;96918;-81
2023/04/23 10:34:31;;;;;;;13.73;12.63;;;;;;;23.17;36.71;99458.09;5008848;28;98105;-81
2023/04/23 10:36:59;;;;;;;13.13;11.90;;;;;;;22.95;36.89;99453.19;5025082;28;101020;-81
2023/04/23 10:39:31;;;;;;;13.07;11.98;;;;;;;22.97;37.18;99453.91;5012732;28;97371;-82
2023/04/23 10:41:57;;;;;;;13.38;12.32;;;;;;;22.89;37.38;99449.25;5041823;27;96874;-81
2023/04/23 10:44:31;;;;;;;12.45;11.40;;;;;;;22.93;37.68;99457.84;5006302;28;101784;-80
2023/04/23 10:46:59;;;;;;;13.57;12.02;;;;;;;22.81;37.96;99443.84;5027299;28;101019;-82
2023/04/23 10:49:29;;;;;;;12.55;11.35;;;;;;;22.83;38.08;99452.53;5000396;28;96983;-81
2023/04/23 10:52:08;;;;;;;12.13;11.18;;;;;;;22.70;38.03;99441.41;5028924;27;97505;-84
2023/04/23 10:54:35;;;;;;;11.65;10.82;;;;;;;22.83;38.12;99445.38;5016595;28;100655;-81
2023/04/23 10:57:05;;;;;;;12.23;11.05;;;;;;;22.99;37.88;99454.59;5033582;27;101057;-81
2023/04/23 10:59:32;;;;;;;12.40;11.37;;;;;;;23.02;37.50;99465.00;5033317;28;97103;-81
2023/04/23 11:02:09;;;;;;;13.35;12.15;;;;;;;22.94;37.06;99443.47;5016259;28;97140;-83
2023/04/23 11:04:40;;;;;;;12.30;11.18;;;;;;;22.97;37.04;99452.06;5036425;27;101767;-81
2023/04/23 11:07:07;;;;;;;11.88;11.00;;;;;;;22.82;37.54;99457.06;5008940;27;101118;-81
2023/04/23 11:09:37;;;;;;;11.65;10.73;;;;;;;22.94;37.39;99455.00;5014089;28;97256;-81
2023/04/23 11:12:06;;;;;;;12.57;11.32;;;;;;;22.83;37.60;99423.97;5016130;28;96907;-81
2023/04/23 11:14:36;;;;;;;12.05;10.95;;;;;;;22.84;37.33;99435.53;5019311;28;101691;-80